Time;durP1;ratioP1;P1;durP2;ratioP2;P2;SDS_P1;SDS_P2;PMS_P1;PMS_P2;Temp;Humidity;BMP_temperature;BMP_pressure;BME280_temperature;BME280_humidity;BME280_pressure;Samples;Min_cycle;Max_cycle;Signal;HPM_P1;HPM_P2
2021/11/06 14:15:51;;;;;;;8.750001;7.85;;;;;;;12.66;50.85059;96204.81;;;;
2021/11/06 14:16:52;;;;;;;8.750001;7.85;;;;;;;12.66;50.85059;96204.81;;;;
2021/11/06 14:18:04;;;;;;;8.750001;7.85;;;;;;;12.66;50.85059;96204.81;;;;
2021/11/06 14:19:07;;;;;;;8.750001;7.85;;;;;;;12.66;50.85059;96204.81;;;;
2021/11/06 14:20:09;;;;;;;8.750001;7.85;;;;;;;12.66;50.85059;96204.81;;;;
2021/11/06 14:21:10;;;;;;;8.750001;7.85;;;;;;;12.66;50.85059;96204.81;;;;
2021/11/06 14:22:15;;;;;;;8.750001;7.85;;;;;;;12.66;50.85059;96204.81;;;;
2021/11/06 14:23:16;;;;;;;8.750001;7.85;;;;;;;12.66;50.85059;96204.81;;;;
2021/11/06 14:24:29;;;;;;;8.750001;7.85;;;;;;;12.66;50.85059;96204.81;;;;
2021/11/06 14:25:35;;;;;;;8.750001;7.85;;;;;;;12.66;50.85059;96204.81;;;;
2021/11/06 14:26:38;;;;;;;8.85;7.949999;;;;;;;11.51;52.0459;96202.33;;;;
2021/11/06 14:27:48;;;;;;;8.85;7.949999;;;;;;;11.51;52.0459;96202.33;;;;
2021/11/06 14:29:06;;;;;;;8.85;7.949999;;;;;;;11.51;52.0459;96202.33;;;;
2021/11/06 14:30:11;;;;;;;8.85;7.949999;;;;;;;11.51;52.0459;96202.33;;;;
2021/11/06 14:31:13;;;;;;;8.85;7.949999;;;;;;;11.51;52.0459;96202.33;;;;
2021/11/06 14:32:14;;;;;;;8.85;7.949999;;;;;;;11.51;52.0459;96202.33;;;;
2021/11/06 14:33:14;;;;;;;8.85;7.949999;;;;;;;11.51;52.0459;96202.33;;;;
2021/11/06 14:34:24;;;;;;;8.85;7.949999;;;;;;;11.51;52.0459;96202.33;;;;
2021/11/06 14:35:26;;;;;;;8.85;7.949999;;;;;;;11.51;52.0459;96202.33;;;;
2021/11/06 14:36:29;;;;;;;9.35;8.35;;;;;;;10.63;53.01758;96198.22;;;;
2021/11/06 14:37:30;;;;;;;9.35;8.35;;;;;;;10.63;53.01758;96198.22;;;;
2021/11/06 14:38:30;;;;;;;9.35;8.35;;;;;;;10.63;53.01758;96198.22;;;;
2021/11/06 14:39:48;;;;;;;9.35;8.35;;;;;;;10.63;53.01758;96198.22;;;;
2021/11/06 14:40:53;;;;;;;9.35;8.35;;;;;;;10.63;53.01758;96198.22;;;;
2021/11/06 14:42:02;;;;;;;9.35;8.35;;;;;;;10.63;53.01758;96198.22;;;;
2021/11/06 14:43:04;;;;;;;9.35;8.35;;;;;;;10.63;53.01758;96198.22;;;;
2021/11/06 14:44:09;;;;;;;9.35;8.35;;;;;;;10.63;53.01758;96198.22;;;;
2021/11/06 14:45:11;;;;;;;9.35;8.35;;;;;;;10.63;53.01758;96198.22;;;;
2021/11/06 14:46:16;;;;;;;9.35;8.35;;;;;;;10.63;53.01758;96198.22;;;;
2021/11/06 14:47:19;;;;;;;8.249999;7.45;;;;;;;9.86;53.77344;96197.77;;;;
2021/11/06 14:48:22;;;;;;;8.249999;7.45;;;;;;;9.86;53.77344;96197.77;;;;
2021/11/06 14:49:22;;;;;;;8.249999;7.45;;;;;;;9.86;53.77344;96197.77;;;;
2021/11/06 14:50:43;;;;;;;8.249999;7.45;;;;;;;9.86;53.77344;96197.77;;;;
2021/11/06 14:51:44;;;;;;;8.249999;7.45;;;;;;;9.86;53.77344;96197.77;;;;
2021/11/06 14:53:03;;;;;;;8.249999;7.45;;;;;;;9.86;53.77344;96197.77;;;;
2021/11/06 14:54:13;;;;;;;8.249999;7.45;;;;;;;9.86;53.77344;96197.77;;;;
2021/11/06 14:55:14;;;;;;;8.249999;7.45;;;;;;;9.86;53.77344;96197.77;;;;
2021/11/06 14:56:16;;;;;;;8.249999;7.45;;;;;;;9.86;53.77344;96197.77;;;;
2021/11/06 14:57:17;;;;;;;8.249999;7.45;;;;;;;9.86;53.77344;96197.77;;;;
2021/11/06 14:58:21;;;;;;;7.9;6.95;;;;;;;9.23;54.55273;96196.64;;;;
2021/11/06 14:59:41;;;;;;;7.9;6.95;;;;;;;9.23;54.55273;96196.64;;;;
2021/11/06 15:00:41;;;;;;;7.9;6.95;;;;;;;9.23;54.55273;96196.64;;;;
2021/11/06 15:01:44;;;;;;;7.9;6.95;;;;;;;9.23;54.55273;96196.64;;;;
2021/11/06 15:02:54;;;;;;;7.9;6.95;;;;;;;9.23;54.55273;96196.64;;;;
2021/11/06 15:03:57;;;;;;;7.9;6.95;;;;;;;9.23;54.55273;96196.64;;;;
2021/11/06 15:05:00;;;;;;;7.9;6.95;;;;;;;9.23;54.55273;96196.64;;;;
2021/11/06 15:06:02;;;;;;;7.9;6.95;;;;;;;9.23;54.55273;96196.64;;;;
2021/11/06 15:07:09;;;;;;;7.9;6.95;;;;;;;9.23;54.55273;96196.64;;;;
2021/11/06 15:08:10;;;;;;;7.9;6.95;;;;;;;9.23;54.55273;96196.64;;;;
2021/11/06 15:09:14;;;;;;;8.1;6.749999;;;;;;;8.54;55.2373;96187.53;;;;
2021/11/06 15:10:14;;;;;;;8.1;6.749999;;;;;;;8.54;55.2373;96187.53;;;;
2021/11/06 15:11:17;;;;;;;8.1;6.749999;;;;;;;8.54;55.2373;96187.53;;;;
2021/11/06 15:12:19;;;;;;;8.1;6.749999;;;;;;;8.54;55.2373;96187.53;;;;
2021/11/06 15:13:20;;;;;;;8.1;6.749999;;;;;;;8.54;55.2373;96187.53;;;;
2021/11/06 15:14:22;;;;;;;8.1;6.749999;;;;;;;8.54;55.2373;96187.53;;;;
2021/11/06 15:15:23;;;;;;;8.1;6.749999;;;;;;;8.54;55.2373;96187.53;;;;
2021/11/06 15:16:24;;;;;;;8.1;6.749999;;;;;;;8.54;55.2373;96187.53;;;;
2021/11/06 15:17:28;;;;;;;8.1;6.749999;;;;;;;8.54;55.2373;96187.53;;;;
2021/11/06 15:18:31;;;;;;;8.1;6.749999;;;;;;;8.54;55.2373;96187.53;;;;
2021/11/06 15:19:31;;;;;;;9.299999;6.8;;;;;;;7.82;55.91602;96192.91;;;;
2021/11/06 15:20:32;;;;;;;9.299999;6.8;;;;;;;7.82;55.91602;96192.91;;;;
2021/11/06 15:21:36;;;;;;;9.299999;6.8;;;;;;;7.82;55.91602;96192.91;;;;
2021/11/06 15:22:37;;;;;;;9.299999;6.8;;;;;;;7.82;55.91602;96192.91;;;;
2021/11/06 15:23:38;;;;;;;9.299999;6.8;;;;;;;7.82;55.91602;96192.91;;;;
2021/11/06 15:24:38;;;;;;;9.299999;6.8;;;;;;;7.82;55.91602;96192.91;;;;
2021/11/06 15:25:39;;;;;;;9.299999;6.8;;;;;;;7.82;55.91602;96192.91;;;;
2021/11/06 15:26:41;;;;;;;9.299999;6.8;;;;;;;7.82;55.91602;96192.91;;;;
2021/11/06 15:27:43;;;;;;;9.299999;6.8;;;;;;;7.82;55.91602;96192.91;;;;
2021/11/06 15:28:44;;;;;;;9.299999;6.8;;;;;;;7.82;55.91602;96192.91;;;;
2021/11/06 15:29:45;;;;;;;8.149999;6.349999;;;;;;;7.1;56.68652;96182.09;;;;
2021/11/06 15:30:47;;;;;;;8.149999;6.349999;;;;;;;7.1;56.68652;96182.09;;;;
2021/11/06 15:31:48;;;;;;;8.149999;6.349999;;;;;;;7.1;56.68652;96182.09;;;;
2021/11/06 15:32:51;;;;;;;8.149999;6.349999;;;;;;;7.1;56.68652;96182.09;;;;
2021/11/06 15:33:52;;;;;;;8.149999;6.349999;;;;;;;7.1;56.68652;96182.09;;;;
2021/11/06 15:34:53;;;;;;;8.149999;6.349999;;;;;;;7.1;56.68652;96182.09;;;;
2021/11/06 15:35:54;;;;;;;8.149999;6.349999;;;;;;;7.1;56.68652;96182.09;;;;
2021/11/06 15:36:54;;;;;;;8.149999;6.349999;;;;;;;7.1;56.68652;96182.09;;;;
2021/11/06 15:37:55;;;;;;;8.149999;6.349999;;;;;;;7.1;56.68652;96182.09;;;;
2021/11/06 15:38:58;;;;;;;8.149999;6.349999;;;;;;;7.1;56.68652;96182.09;;;;
2021/11/06 15:39:59;;;;;;;8.149999;6.349999;;;;;;;7.1;56.68652;96182.09;;;;
2021/11/06 15:40:59;;;;;;;7.25;6.149999;;;;;;;6.48;57.37402;96178.73;;;;
2021/11/06 15:42:00;;;;;;;7.25;6.149999;;;;;;;6.48;57.37402;96178.73;;;;
2021/11/06 15:43:01;;;;;;;7.25;6.149999;;;;;;;6.48;57.37402;96178.73;;;;
2021/11/06 15:44:03;;;;;;;7.25;6.149999;;;;;;;6.48;57.37402;96178.73;;;;
2021/11/06 15:45:04;;;;;;;7.25;6.149999;;;;;;;6.48;57.37402;96178.73;;;;
2021/11/06 15:46:07;;;;;;;7.25;6.149999;;;;;;;6.48;57.37402;96178.73;;;;
2021/11/06 15:47:08;;;;;;;7.25;6.149999;;;;;;;6.48;57.37402;96178.73;;;;
2021/11/06 15:48:12;;;;;;;7.25;6.149999;;;;;;;6.48;57.37402;96178.73;;;;
2021/11/06 15:49:14;;;;;;;7.25;6.149999;;;;;;;6.48;57.37402;96178.73;;;;
2021/11/06 15:50:15;;;;;;;7.25;6.149999;;;;;;;6.48;57.37402;96178.73;;;;
2021/11/06 15:51:24;;;;;;;8.95;6.9;;;;;;;5.89;57.92188;96177.06;;;;
2021/11/06 15:52:24;;;;;;;8.95;6.9;;;;;;;5.89;57.92188;96177.06;;;;
2021/11/06 15:53:26;;;;;;;8.95;6.9;;;;;;;5.89;57.92188;96177.06;;;;
2021/11/06 15:54:28;;;;;;;8.95;6.9;;;;;;;5.89;57.92188;96177.06;;;;
2021/11/06 15:55:29;;;;;;;8.95;6.9;;;;;;;5.89;57.92188;96177.06;;;;
2021/11/06 15:56:30;;;;;;;8.95;6.9;;;;;;;5.89;57.92188;96177.06;;;;
2021/11/06 15:57:30;;;;;;;8.95;6.9;;;;;;;5.89;57.92188;96177.06;;;;
2021/11/06 15:58:31;;;;;;;8.95;6.9;;;;;;;5.89;57.92188;96177.06;;;;
2021/11/06 15:59:31;;;;;;;8.95;6.9;;;;;;;5.89;57.92188;96177.06;;;;
2021/11/06 16:00:32;;;;;;;8.95;6.9;;;;;;;5.89;57.92188;96177.06;;;;
2021/11/06 16:01:32;;;;;;;8.95;6.9;;;;;;;5.89;57.92188;96177.06;;;;
2021/11/06 16:02:34;;;;;;;8.85;6.849999;;;;;;;5.33;58.4541;96170.84;;;;
2021/11/06 16:03:34;;;;;;;8.85;6.849999;;;;;;;5.33;58.4541;96170.84;;;;
2021/11/06 16:04:35;;;;;;;8.85;6.849999;;;;;;;5.33;58.4541;96170.84;;;;
2021/11/06 16:05:35;;;;;;;8.85;6.849999;;;;;;;5.33;58.4541;96170.84;;;;
2021/11/06 16:06:36;;;;;;;8.85;6.849999;;;;;;;5.33;58.4541;96170.84;;;;
2021/11/06 16:07:38;;;;;;;8.85;6.849999;;;;;;;5.33;58.4541;96170.84;;;;
2021/11/06 16:08:38;;;;;;;8.85;6.849999;;;;;;;5.33;58.4541;96170.84;;;;
2021/11/06 16:09:41;;;;;;;8.85;6.849999;;;;;;;5.33;58.4541;96170.84;;;;
2021/11/06 16:10:41;;;;;;;8.85;6.849999;;;;;;;5.33;58.4541;96170.84;;;;
2021/11/06 16:11:42;;;;;;;8.85;6.849999;;;;;;;5.33;58.4541;96170.84;;;;
2021/11/06 16:12:43;;;;;;;10.15;7.4;;;;;;;4.83;58.91602;96163.51;;;;
2021/11/06 16:13:44;;;;;;;10.15;7.4;;;;;;;4.83;58.91602;96163.51;;;;
2021/11/06 16:14:44;;;;;;;10.15;7.4;;;;;;;4.83;58.91602;96163.51;;;;
2021/11/06 16:15:46;;;;;;;10.15;7.4;;;;;;;4.83;58.91602;96163.51;;;;
2021/11/06 16:16:48;;;;;;;10.15;7.4;;;;;;;4.83;58.91602;96163.51;;;;
2021/11/06 16:17:55;;;;;;;10.15;7.4;;;;;;;4.83;58.91602;96163.51;;;;
2021/11/06 16:18:59;;;;;;;10.15;7.4;;;;;;;4.83;58.91602;96163.51;;;;
2021/11/06 16:20:01;;;;;;;10.15;7.4;;;;;;;4.83;58.91602;96163.51;;;;
2021/11/06 16:21:05;;;;;;;10.15;7.4;;;;;;;4.83;58.91602;96163.51;;;;
2021/11/06 16:22:07;;;;;;;10.15;7.4;;;;;;;4.83;58.91602;96163.51;;;;
2021/11/06 16:23:08;;;;;;;12.55;8.700001;;;;;;;4.39;59.37402;96171.44;;;;
2021/11/06 16:24:09;;;;;;;12.55;8.700001;;;;;;;4.39;59.37402;96171.44;;;;
2021/11/06 16:25:09;;;;;;;12.55;8.700001;;;;;;;4.39;59.37402;96171.44;;;;
2021/11/06 16:26:10;;;;;;;12.55;8.700001;;;;;;;4.39;59.37402;96171.44;;;;
2021/11/06 16:27:11;;;;;;;12.55;8.700001;;;;;;;4.39;59.37402;96171.44;;;;
2021/11/06 16:28:11;;;;;;;12.55;8.700001;;;;;;;4.39;59.37402;96171.44;;;;
2021/11/06 16:29:12;;;;;;;12.55;8.700001;;;;;;;4.39;59.37402;96171.44;;;;
2021/11/06 16:30:13;;;;;;;12.55;8.700001;;;;;;;4.39;59.37402;96171.44;;;;
2021/11/06 16:31:13;;;;;;;12.55;8.700001;;;;;;;4.39;59.37402;96171.44;;;;
2021/11/06 16:32:15;;;;;;;12.55;8.700001;;;;;;;4.39;59.37402;96171.44;;;;
2021/11/06 16:33:16;;;;;;;12.55;8.700001;;;;;;;4.39;59.37402;96171.44;;;;
2021/11/06 16:34:18;;;;;;;15.4;9.349999;;;;;;;3.98;59.79395;96172.13;;;;
2021/11/06 16:35:19;;;;;;;15.4;9.349999;;;;;;;3.98;59.79395;96172.13;;;;
2021/11/06 16:36:19;;;;;;;15.4;9.349999;;;;;;;3.98;59.79395;96172.13;;;;
2021/11/06 16:37:21;;;;;;;15.4;9.349999;;;;;;;3.98;59.79395;96172.13;;;;
2021/11/06 16:38:21;;;;;;;15.4;9.349999;;;;;;;3.98;59.79395;96172.13;;;;
2021/11/06 16:39:22;;;;;;;15.4;9.349999;;;;;;;3.98;59.79395;96172.13;;;;
2021/11/06 16:40:23;;;;;;;15.4;9.349999;;;;;;;3.98;59.79395;96172.13;;;;
2021/11/06 16:41:24;;;;;;;15.4;9.349999;;;;;;;3.98;59.79395;96172.13;;;;
2021/11/06 16:42:24;;;;;;;15.4;9.349999;;;;;;;3.98;59.79395;96172.13;;;;
2021/11/06 16:43:26;;;;;;;15.4;9.349999;;;;;;;3.98;59.79395;96172.13;;;;
2021/11/06 16:44:26;;;;;;;17;11.25;;;;;;;3.63;60.18066;96171.17;;;;
2021/11/06 16:45:27;;;;;;;17;11.25;;;;;;;3.63;60.18066;96171.17;;;;
2021/11/06 16:46:28;;;;;;;17;11.25;;;;;;;3.63;60.18066;96171.17;;;;
2021/11/06 16:47:29;;;;;;;17;11.25;;;;;;;3.63;60.18066;96171.17;;;;
2021/11/06 16:48:31;;;;;;;17;11.25;;;;;;;3.63;60.18066;96171.17;;;;
2021/11/06 16:49:32;;;;;;;17;11.25;;;;;;;3.63;60.18066;96171.17;;;;
2021/11/06 16:50:33;;;;;;;17;11.25;;;;;;;3.63;60.18066;96171.17;;;;
2021/11/06 16:51:34;;;;;;;17;11.25;;;;;;;3.63;60.18066;96171.17;;;;
2021/11/06 16:52:34;;;;;;;17;11.25;;;;;;;3.63;60.18066;96171.17;;;;
2021/11/06 16:53:35;;;;;;;17;11.25;;;;;;;3.63;60.18066;96171.17;;;;
2021/11/06 16:54:37;;;;;;;17;11.25;;;;;;;3.63;60.18066;96171.17;;;;
2021/11/06 16:55:38;;;;;;;17.75;11.95;;;;;;;3.3;60.50293;96169.17;;;;
2021/11/06 16:56:38;;;;;;;17.75;11.95;;;;;;;3.3;60.50293;96169.17;;;;
2021/11/06 16:57:39;;;;;;;17.75;11.95;;;;;;;3.3;60.50293;96169.17;;;;
2021/11/06 16:58:40;;;;;;;17.75;11.95;;;;;;;3.3;60.50293;96169.17;;;;
2021/11/06 16:59:41;;;;;;;17.75;11.95;;;;;;;3.3;60.50293;96169.17;;;;
2021/11/06 17:00:41;;;;;;;17.75;11.95;;;;;;;3.3;60.50293;96169.17;;;;
2021/11/06 17:01:42;;;;;;;17.75;11.95;;;;;;;3.3;60.50293;96169.17;;;;
2021/11/06 17:02:43;;;;;;;17.75;11.95;;;;;;;3.3;60.50293;96169.17;;;;
2021/11/06 17:03:43;;;;;;;17.75;11.95;;;;;;;3.3;60.50293;96169.17;;;;
2021/11/06 17:04:44;;;;;;;17.75;11.95;;;;;;;3.3;60.50293;96169.17;;;;
2021/11/06 17:05:47;;;;;;;17.75;11.95;;;;;;;3.3;60.50293;96169.17;;;;
2021/11/06 17:06:48;;;;;;;17.75;11.95;;;;;;;3.3;60.50293;96169.17;;;;
2021/11/06 17:07:51;;;;;;;17.75;11.95;;;;;;;3.3;60.50293;96169.17;;;;
2021/11/06 17:09:02;;;;;;;17.75;11.95;;;;;;;3.3;60.50293;96169.17;;;;
2021/11/06 17:10:04;;;;;;;17.75;11.95;;;;;;;3.3;60.50293;96169.17;;;;
2021/11/06 17:11:09;;;;;;;17.75;11.95;;;;;;;3.3;60.50293;96169.17;;;;
2021/11/06 17:12:12;;;;;;;17.75;11.95;;;;;;;3.3;60.50293;96169.17;;;;
2021/11/06 17:13:12;;;;;;;17.75;11.95;;;;;;;3.3;60.50293;96169.17;;;;
2021/11/06 17:14:15;;;;;;;17.75;11.95;;;;;;;3.3;60.50293;96169.17;;;;
2021/11/06 17:15:16;;;;;;;17.75;11.95;;;;;;;3.3;60.50293;96169.17;;;;
2021/11/06 17:16:17;;;;;;;17.75;11.95;;;;;;;3.3;60.50293;96169.17;;;;
2021/11/06 17:17:20;;;;;;;22.4;16;;;;;;;2.67;61.3418;96165.55;;;;
2021/11/06 17:18:21;;;;;;;22.4;16;;;;;;;2.67;61.3418;96165.55;;;;
2021/11/06 17:19:22;;;;;;;22.4;16;;;;;;;2.67;61.3418;96165.55;;;;
2021/11/06 17:20:23;;;;;;;22.4;16;;;;;;;2.67;61.3418;96165.55;;;;
2021/11/06 17:21:23;;;;;;;22.4;16;;;;;;;2.67;61.3418;96165.55;;;;
2021/11/06 17:22:24;;;;;;;22.4;16;;;;;;;2.67;61.3418;96165.55;;;;
2021/11/06 17:23:24;;;;;;;22.4;16;;;;;;;2.67;61.3418;96165.55;;;;
2021/11/06 17:24:25;;;;;;;22.4;16;;;;;;;2.67;61.3418;96165.55;;;;
2021/11/06 17:25:26;;;;;;;22.4;16;;;;;;;2.67;61.3418;96165.55;;;;
2021/11/06 17:26:27;;;;;;;22.4;16;;;;;;;2.67;61.3418;96165.55;;;;
2021/11/06 17:27:31;;;;;;;19.7;12.8;;;;;;;2.43;61.66602;96169.44;;;;
2021/11/06 17:28:31;;;;;;;19.7;12.8;;;;;;;2.43;61.66602;96169.44;;;;
2021/11/06 17:29:33;;;;;;;19.7;12.8;;;;;;;2.43;61.66602;96169.44;;;;
2021/11/06 17:30:34;;;;;;;19.7;12.8;;;;;;;2.43;61.66602;96169.44;;;;
2021/11/06 17:31:34;;;;;;;19.7;12.8;;;;;;;2.43;61.66602;96169.44;;;;
2021/11/06 17:32:35;;;;;;;19.7;12.8;;;;;;;2.43;61.66602;96169.44;;;;
2021/11/06 17:33:36;;;;;;;19.7;12.8;;;;;;;2.43;61.66602;96169.44;;;;
2021/11/06 17:34:37;;;;;;;19.7;12.8;;;;;;;2.43;61.66602;96169.44;;;;
2021/11/06 17:35:40;;;;;;;19.7;12.8;;;;;;;2.43;61.66602;96169.44;;;;
2021/11/06 17:36:41;;;;;;;19.7;12.8;;;;;;;2.43;61.66602;96169.44;;;;
2021/11/06 17:37:41;;;;;;;25.3;18.35;;;;;;;2.22;61.94043;96176.23;;;;
2021/11/06 17:38:42;;;;;;;25.3;18.35;;;;;;;2.22;61.94043;96176.23;;;;
2021/11/06 17:39:43;;;;;;;25.3;18.35;;;;;;;2.22;61.94043;96176.23;;;;
2021/11/06 17:40:43;;;;;;;25.3;18.35;;;;;;;2.22;61.94043;96176.23;;;;
2021/11/06 17:41:44;;;;;;;25.3;18.35;;;;;;;2.22;61.94043;96176.23;;;;
2021/11/06 17:42:45;;;;;;;25.3;18.35;;;;;;;2.22;61.94043;96176.23;;;;
2021/11/06 17:43:46;;;;;;;25.3;18.35;;;;;;;2.22;61.94043;96176.23;;;;
2021/11/06 17:44:46;;;;;;;25.3;18.35;;;;;;;2.22;61.94043;96176.23;;;;
2021/11/06 17:45:47;;;;;;;25.3;18.35;;;;;;;2.22;61.94043;96176.23;;;;
2021/11/06 17:46:49;;;;;;;25.3;18.35;;;;;;;2.22;61.94043;96176.23;;;;
2021/11/06 17:47:50;;;;;;;25.3;18.35;;;;;;;2.22;61.94043;96176.23;;;;
2021/11/06 17:48:50;;;;;;;26.15;18.25;;;;;;;2.02;62.20703;96184.58;;;;
2021/11/06 17:49:52;;;;;;;26.15;18.25;;;;;;;2.02;62.20703;96184.58;;;;
2021/11/06 17:51:01;;;;;;;26.15;18.25;;;;;;;2.02;62.20703;96184.58;;;;
2021/11/06 17:52:08;;;;;;;26.15;18.25;;;;;;;2.02;62.20703;96184.58;;;;
2021/11/06 17:53:13;;;;;;;26.15;18.25;;;;;;;2.02;62.20703;96184.58;;;;
2021/11/06 17:54:16;;;;;;;26.15;18.25;;;;;;;2.02;62.20703;96184.58;;;;
2021/11/06 17:55:17;;;;;;;26.15;18.25;;;;;;;2.02;62.20703;96184.58;;;;
2021/11/06 17:56:19;;;;;;;26.15;18.25;;;;;;;2.02;62.20703;96184.58;;;;
2021/11/06 17:57:20;;;;;;;26.15;18.25;;;;;;;2.02;62.20703;96184.58;;;;
2021/11/06 17:58:22;;;;;;;26.15;18.25;;;;;;;2.02;62.20703;96184.58;;;;
2021/11/06 17:59:22;;;;;;;34.65;24.6;;;;;;;1.91;62.38086;96179.05;;;;
2021/11/06 18:00:24;;;;;;;34.65;24.6;;;;;;;1.91;62.38086;96179.05;;;;
2021/11/06 18:01:28;;;;;;;34.65;24.6;;;;;;;1.91;62.38086;96179.05;;;;
2021/11/06 18:02:31;;;;;;;34.65;24.6;;;;;;;1.91;62.38086;96179.05;;;;
2021/11/06 18:03:32;;;;;;;34.65;24.6;;;;;;;1.91;62.38086;96179.05;;;;
2021/11/06 18:04:33;;;;;;;34.65;24.6;;;;;;;1.91;62.38086;96179.05;;;;
2021/11/06 18:05:34;;;;;;;34.65;24.6;;;;;;;1.91;62.38086;96179.05;;;;
2021/11/06 18:06:36;;;;;;;34.65;24.6;;;;;;;1.91;62.38086;96179.05;;;;
2021/11/06 18:07:37;;;;;;;34.65;24.6;;;;;;;1.91;62.38086;96179.05;;;;
2021/11/06 18:08:38;;;;;;;34.65;24.6;;;;;;;1.91;62.38086;96179.05;;;;
2021/11/06 18:09:39;;;;;;;34.65;24.6;;;;;;;1.91;62.38086;96179.05;;;;
2021/11/06 18:10:40;;;;;;;21;13.7;;;;;;;1.8;62.52246;96166.94;;;;
2021/11/06 18:11:42;;;;;;;21;13.7;;;;;;;1.8;62.52246;96166.94;;;;
2021/11/06 18:12:42;;;;;;;21;13.7;;;;;;;1.8;62.52246;96166.94;;;;
2021/11/06 18:13:43;;;;;;;21;13.7;;;;;;;1.8;62.52246;96166.94;;;;
2021/11/06 18:14:44;;;;;;;21;13.7;;;;;;;1.8;62.52246;96166.94;;;;
2021/11/06 18:15:44;;;;;;;21;13.7;;;;;;;1.8;62.52246;96166.94;;;;
2021/11/06 18:16:45;;;;;;;21;13.7;;;;;;;1.8;62.52246;96166.94;;;;
2021/11/06 18:17:46;;;;;;;21;13.7;;;;;;;1.8;62.52246;96166.94;;;;
2021/11/06 18:18:46;;;;;;;21;13.7;;;;;;;1.8;62.52246;96166.94;;;;
2021/11/06 18:19:50;;;;;;;21;13.7;;;;;;;1.8;62.52246;96166.94;;;;
2021/11/06 18:20:50;;;;;;;21.45;13.35;;;;;;;1.62;62.78906;96161.39;;;;
2021/11/06 18:21:51;;;;;;;21.45;13.35;;;;;;;1.62;62.78906;96161.39;;;;
2021/11/06 18:22:52;;;;;;;21.45;13.35;;;;;;;1.62;62.78906;96161.39;;;;
2021/11/06 18:23:52;;;;;;;21.45;13.35;;;;;;;1.62;62.78906;96161.39;;;;
2021/11/06 18:24:54;;;;;;;21.45;13.35;;;;;;;1.62;62.78906;96161.39;;;;
2021/11/06 18:25:55;;;;;;;21.45;13.35;;;;;;;1.62;62.78906;96161.39;;;;
2021/11/06 18:26:56;;;;;;;21.45;13.35;;;;;;;1.62;62.78906;96161.39;;;;
2021/11/06 18:27:57;;;;;;;21.45;13.35;;;;;;;1.62;62.78906;96161.39;;;;
2021/11/06 18:28:58;;;;;;;21.45;13.35;;;;;;;1.62;62.78906;96161.39;;;;
2021/11/06 18:29:59;;;;;;;21.45;13.35;;;;;;;1.62;62.78906;96161.39;;;;
2021/11/06 18:31:00;;;;;;;21.45;13.35;;;;;;;1.62;62.78906;96161.39;;;;
2021/11/06 18:42:15;;;;;;;21;13.5;;;;;;;1.33;63.41113;96143.94;;;;
2021/11/06 18:43:15;;;;;;;21;13.5;;;;;;;1.33;63.41113;96143.94;;;;
2021/11/06 18:44:17;;;;;;;21;13.5;;;;;;;1.33;63.41113;96143.94;;;;
2021/11/06 18:45:18;;;;;;;21;13.5;;;;;;;1.33;63.41113;96143.94;;;;
2021/11/06 18:46:24;;;;;;;21;13.5;;;;;;;1.33;63.41113;96143.94;;;;
2021/11/06 18:47:26;;;;;;;21;13.5;;;;;;;1.33;63.41113;96143.94;;;;
2021/11/06 18:48:28;;;;;;;21;13.5;;;;;;;1.33;63.41113;96143.94;;;;
2021/11/06 18:49:28;;;;;;;21;13.5;;;;;;;1.33;63.41113;96143.94;;;;
2021/11/06 18:50:29;;;;;;;21;13.5;;;;;;;1.33;63.41113;96143.94;;;;
2021/11/06 18:51:29;;;;;;;21;13.5;;;;;;;1.33;63.41113;96143.94;;;;
2021/11/06 18:52:31;;;;;;;21;13.5;;;;;;;1.33;63.41113;96143.94;;;;
2021/11/06 18:53:32;;;;;;;21;13.5;;;;;;;1.33;63.41113;96143.94;;;;
2021/11/06 18:54:33;;;;;;;21;13.5;;;;;;;1.33;63.41113;96143.94;;;;
2021/11/06 18:55:34;;;;;;;21;13.5;;;;;;;1.33;63.41113;96143.94;;;;
2021/11/06 18:56:35;;;;;;;21;13.5;;;;;;;1.33;63.41113;96143.94;;;;
2021/11/06 18:57:35;;;;;;;21;13.5;;;;;;;1.33;63.41113;96143.94;;;;
2021/11/06 18:58:36;;;;;;;21;13.5;;;;;;;1.33;63.41113;96143.94;;;;
2021/11/06 18:59:36;;;;;;;21;13.5;;;;;;;1.33;63.41113;96143.94;;;;
2021/11/06 19:00:37;;;;;;;21;13.5;;;;;;;1.33;63.41113;96143.94;;;;
2021/11/06 19:01:38;;;;;;;21;13.5;;;;;;;1.33;63.41113;96143.94;;;;
2021/11/06 19:02:38;;;;;;;21;13.5;;;;;;;1.33;63.41113;96143.94;;;;
2021/11/06 19:03:41;;;;;;;122.9;48.14999;;;;;;;1.38;63.68066;96128.36;;;;
2021/11/06 19:04:43;;;;;;;122.9;48.14999;;;;;;;1.38;63.68066;96128.36;;;;
2021/11/06 19:05:43;;;;;;;122.9;48.14999;;;;;;;1.38;63.68066;96128.36;;;;
2021/11/06 19:06:44;;;;;;;122.9;48.14999;;;;;;;1.38;63.68066;96128.36;;;;
2021/11/06 19:07:45;;;;;;;122.9;48.14999;;;;;;;1.38;63.68066;96128.36;;;;
2021/11/06 19:08:46;;;;;;;122.9;48.14999;;;;;;;1.38;63.68066;96128.36;;;;
2021/11/06 19:09:47;;;;;;;122.9;48.14999;;;;;;;1.38;63.68066;96128.36;;;;
2021/11/06 19:10:48;;;;;;;122.9;48.14999;;;;;;;1.38;63.68066;96128.36;;;;
2021/11/06 19:11:50;;;;;;;122.9;48.14999;;;;;;;1.38;63.68066;96128.36;;;;
2021/11/06 19:12:50;;;;;;;122.9;48.14999;;;;;;;1.38;63.68066;96128.36;;;;
2021/11/06 19:13:51;;;;;;;76.54999;27.55;;;;;;;1.6;63.70215;96119.79;;;;
2021/11/06 19:14:52;;;;;;;76.54999;27.55;;;;;;;1.6;63.70215;96119.79;;;;
2021/11/06 19:15:53;;;;;;;76.54999;27.55;;;;;;;1.6;63.70215;96119.79;;;;
2021/11/06 19:16:54;;;;;;;76.54999;27.55;;;;;;;1.6;63.70215;96119.79;;;;
2021/11/06 19:17:54;;;;;;;76.54999;27.55;;;;;;;1.6;63.70215;96119.79;;;;
2021/11/06 19:18:55;;;;;;;76.54999;27.55;;;;;;;1.6;63.70215;96119.79;;;;
2021/11/06 19:19:56;;;;;;;76.54999;27.55;;;;;;;1.6;63.70215;96119.79;;;;
2021/11/06 19:20:57;;;;;;;76.54999;27.55;;;;;;;1.6;63.70215;96119.79;;;;
2021/11/06 19:21:58;;;;;;;76.54999;27.55;;;;;;;1.6;63.70215;96119.79;;;;
2021/11/06 19:22:59;;;;;;;76.54999;27.55;;;;;;;1.6;63.70215;96119.79;;;;
2021/11/06 19:23:59;;;;;;;76.54999;27.55;;;;;;;1.6;63.70215;96119.79;;;;
2021/11/06 19:25:00;;;;;;;99.15;34.1;;;;;;;1.82;63.80664;96109.56;;;;
2021/11/06 19:26:02;;;;;;;99.15;34.1;;;;;;;1.82;63.80664;96109.56;;;;
2021/11/06 19:27:08;;;;;;;99.15;34.1;;;;;;;1.82;63.80664;96109.56;;;;
2021/11/06 19:28:08;;;;;;;99.15;34.1;;;;;;;1.82;63.80664;96109.56;;;;
2021/11/06 19:29:09;;;;;;;99.15;34.1;;;;;;;1.82;63.80664;96109.56;;;;
2021/11/06 19:30:10;;;;;;;99.15;34.1;;;;;;;1.82;63.80664;96109.56;;;;
2021/11/06 19:31:15;;;;;;;99.15;34.1;;;;;;;1.82;63.80664;96109.56;;;;
2021/11/06 19:32:15;;;;;;;99.15;34.1;;;;;;;1.82;63.80664;96109.56;;;;
2021/11/06 19:33:16;;;;;;;99.15;34.1;;;;;;;1.82;63.80664;96109.56;;;;
2021/11/06 19:34:17;;;;;;;99.15;34.1;;;;;;;1.82;63.80664;96109.56;;;;
2021/11/06 19:35:19;;;;;;;49.15;24.1;;;;;;;1.96;63.94336;96111.6;;;;
2021/11/06 19:36:19;;;;;;;49.15;24.1;;;;;;;1.96;63.94336;96111.6;;;;
2021/11/06 19:37:20;;;;;;;49.15;24.1;;;;;;;1.96;63.94336;96111.6;;;;
2021/11/06 19:38:21;;;;;;;49.15;24.1;;;;;;;1.96;63.94336;96111.6;;;;
2021/11/06 19:39:21;;;;;;;49.15;24.1;;;;;;;1.96;63.94336;96111.6;;;;
2021/11/06 19:40:22;;;;;;;49.15;24.1;;;;;;;1.96;63.94336;96111.6;;;;
2021/11/06 19:41:24;;;;;;;49.15;24.1;;;;;;;1.96;63.94336;96111.6;;;;
2021/11/06 19:42:24;;;;;;;49.15;24.1;;;;;;;1.96;63.94336;96111.6;;;;
2021/11/06 19:43:25;;;;;;;49.15;24.1;;;;;;;1.96;63.94336;96111.6;;;;
2021/11/06 19:44:25;;;;;;;49.15;24.1;;;;;;;1.96;63.94336;96111.6;;;;
2021/11/06 19:45:27;;;;;;;49.15;24.1;;;;;;;1.96;63.94336;96111.6;;;;
2021/11/06 19:46:28;;;;;;;40.89999;22.50001;;;;;;;1.9;64.23145;96104.17;;;;
2021/11/06 19:47:29;;;;;;;40.89999;22.50001;;;;;;;1.9;64.23145;96104.17;;;;
2021/11/06 19:48:30;;;;;;;40.89999;22.50001;;;;;;;1.9;64.23145;96104.17;;;;
2021/11/06 19:49:30;;;;;;;40.89999;22.50001;;;;;;;1.9;64.23145;96104.17;;;;
2021/11/06 19:50:32;;;;;;;40.89999;22.50001;;;;;;;1.9;64.23145;96104.17;;;;
2021/11/06 19:51:34;;;;;;;40.89999;22.50001;;;;;;;1.9;64.23145;96104.17;;;;
2021/11/06 19:52:35;;;;;;;40.89999;22.50001;;;;;;;1.9;64.23145;96104.17;;;;
2021/11/06 19:53:35;;;;;;;40.89999;22.50001;;;;;;;1.9;64.23145;96104.17;;;;
2021/11/06 19:54:36;;;;;;;40.89999;22.50001;;;;;;;1.9;64.23145;96104.17;;;;
2021/11/06 19:55:37;;;;;;;40.89999;22.50001;;;;;;;1.9;64.23145;96104.17;;;;
2021/11/06 19:56:39;;;;;;;34.05;19.9;;;;;;;1.68;64.52344;96107.5;;;;
2021/11/06 19:57:41;;;;;;;34.05;19.9;;;;;;;1.68;64.52344;96107.5;;;;
2021/11/06 19:58:43;;;;;;;34.05;19.9;;;;;;;1.68;64.52344;96107.5;;;;
2021/11/06 19:59:44;;;;;;;34.05;19.9;;;;;;;1.68;64.52344;96107.5;;;;
2021/11/06 20:00:46;;;;;;;34.05;19.9;;;;;;;1.68;64.52344;96107.5;;;;
2021/11/06 20:01:46;;;;;;;34.05;19.9;;;;;;;1.68;64.52344;96107.5;;;;
2021/11/06 20:02:48;;;;;;;34.05;19.9;;;;;;;1.68;64.52344;96107.5;;;;
2021/11/06 20:03:50;;;;;;;34.05;19.9;;;;;;;1.68;64.52344;96107.5;;;;
2021/11/06 20:04:51;;;;;;;34.05;19.9;;;;;;;1.68;64.52344;96107.5;;;;
2021/11/06 20:05:51;;;;;;;34.05;19.9;;;;;;;1.68;64.52344;96107.5;;;;
2021/11/06 20:06:52;;;;;;;34.05;19.9;;;;;;;1.68;64.52344;96107.5;;;;
2021/11/06 20:07:53;;;;;;;33.89999;20.7;;;;;;;1.35;64.86328;96112.7;;;;
2021/11/06 20:08:57;;;;;;;33.89999;20.7;;;;;;;1.35;64.86328;96112.7;;;;
2021/11/06 20:09:58;;;;;;;33.89999;20.7;;;;;;;1.35;64.86328;96112.7;;;;
2021/11/06 20:10:58;;;;;;;33.89999;20.7;;;;;;;1.35;64.86328;96112.7;;;;
2021/11/06 20:11:59;;;;;;;33.89999;20.7;;;;;;;1.35;64.86328;96112.7;;;;